sensor_id;sensor_type;location;lat;lon;timestamp;P1;durP1;ratioP1;P2;durP2;ratioP2
65230;SDS011;51813;40.666;16.602;2023-11-19T00:00:30;2.13;;;0.90;;
65230;SDS011;51813;40.666;16.602;2023-11-19T00:02:56;1.13;;;0.60;;
65230;SDS011;51813;40.666;16.602;2023-11-19T00:05:21;2.70;;;0.90;;
65230;SDS011;51813;40.666;16.602;2023-11-19T00:07:47;2.13;;;0.88;;
65230;SDS011;51813;40.666;16.602;2023-11-19T00:10:13;2.03;;;0.90;;
65230;SDS011;51813;40.666;16.602;2023-11-19T00:12:44;2.80;;;0.95;;
65230;SDS011;51813;40.666;16.602;2023-11-19T00:15:11;1.52;;;0.70;;
65230;SDS011;51813;40.666;16.602;2023-11-19T00:17:38;2.03;;;0.90;;
65230;SDS011;51813;40.666;16.602;2023-11-19T00:20:10;2.80;;;1.00;;
65230;SDS011;51813;40.666;16.602;2023-11-19T00:22:40;2.00;;;0.80;;
65230;SDS011;51813;40.666;16.602;2023-11-19T00:25:07;1.85;;;0.80;;
65230;SDS011;51813;40.666;16.602;2023-11-19T00:27:34;1.60;;;0.80;;
65230;SDS011;51813;40.666;16.602;2023-11-19T00:30:00;2.13;;;0.70;;
65230;SDS011;51813;40.666;16.602;2023-11-19T00:32:25;1.10;;;0.68;;
65230;SDS011;51813;40.666;16.602;2023-11-19T00:34:51;1.50;;;0.82;;
65230;SDS011;51813;40.666;16.602;2023-11-19T00:37:17;1.92;;;0.80;;
65230;SDS011;51813;40.666;16.602;2023-11-19T00:39:42;2.42;;;0.80;;
65230;SDS011;51813;40.666;16.602;2023-11-19T00:42:08;1.40;;;0.80;;
65230;SDS011;51813;40.666;16.602;2023-11-19T00:44:35;1.45;;;0.60;;
65230;SDS011;51813;40.666;16.602;2023-11-19T00:47:01;1.48;;;0.75;;
65230;SDS011;51813;40.666;16.602;2023-11-19T00:49:27;1.75;;;0.77;;
65230;SDS011;51813;40.666;16.602;2023-11-19T00:51:52;1.45;;;0.60;;
65230;SDS011;51813;40.666;16.602;2023-11-19T00:54:18;2.25;;;0.73;;
65230;SDS011;51813;40.666;16.602;2023-11-19T00:56:44;2.85;;;0.90;;
65230;SDS011;51813;40.666;16.602;2023-11-19T00:59:10;1.50;;;0.68;;
65230;SDS011;51813;40.666;16.602;2023-11-19T01:01:35;2.95;;;0.80;;
65230;SDS011;51813;40.666;16.602;2023-11-19T01:04:01;1.17;;;0.70;;
65230;SDS011;51813;40.666;16.602;2023-11-19T01:06:30;1.30;;;0.70;;
65230;SDS011;51813;40.666;16.602;2023-11-19T01:08:57;1.77;;;0.75;;
65230;SDS011;51813;40.666;16.602;2023-11-19T01:11:23;1.83;;;0.80;;
65230;SDS011;51813;40.666;16.602;2023-11-19T01:13:50;2.25;;;0.80;;
65230;SDS011;51813;40.666;16.602;2023-11-19T01:16:16;1.63;;;0.57;;
65230;SDS011;51813;40.666;16.602;2023-11-19T01:18:42;1.90;;;0.80;;
65230;SDS011;51813;40.666;16.602;2023-11-19T01:21:08;1.23;;;0.77;;
65230;SDS011;51813;40.666;16.602;2023-11-19T01:23:34;1.85;;;0.80;;
65230;SDS011;51813;40.666;16.602;2023-11-19T01:26:00;3.05;;;0.80;;
65230;SDS011;51813;40.666;16.602;2023-11-19T01:28:26;1.15;;;0.70;;
65230;SDS011;51813;40.666;16.602;2023-11-19T01:30:51;1.95;;;0.63;;
65230;SDS011;51813;40.666;16.602;2023-11-19T01:33:17;1.83;;;0.68;;
65230;SDS011;51813;40.666;16.602;2023-11-19T01:35:43;2.78;;;0.80;;
65230;SDS011;51813;40.666;16.602;2023-11-19T01:38:08;1.25;;;0.70;;
65230;SDS011;51813;40.666;16.602;2023-11-19T01:40:34;1.58;;;0.82;;
65230;SDS011;51813;40.666;16.602;2023-11-19T01:43:03;1.52;;;0.77;;
65230;SDS011;51813;40.666;16.602;2023-11-19T01:45:29;1.15;;;0.70;;
65230;SDS011;51813;40.666;16.602;2023-11-19T01:47:56;1.20;;;0.70;;
65230;SDS011;51813;40.666;16.602;2023-11-19T01:50:23;1.20;;;0.60;;
65230;SDS011;51813;40.666;16.602;2023-11-19T01:52:50;0.80;;;0.50;;
65230;SDS011;51813;40.666;16.602;2023-11-19T01:55:18;1.30;;;0.70;;
65230;SDS011;51813;40.666;16.602;2023-11-19T01:57:45;1.90;;;0.80;;
65230;SDS011;51813;40.666;16.602;2023-11-19T02:00:12;1.80;;;0.90;;
65230;SDS011;51813;40.666;16.602;2023-11-19T02:02:39;2.03;;;0.70;;
65230;SDS011;51813;40.666;16.602;2023-11-19T02:05:10;1.90;;;0.90;;
65230;SDS011;51813;40.666;16.602;2023-11-19T02:07:36;1.08;;;0.60;;
65230;SDS011;51813;40.666;16.602;2023-11-19T02:10:02;1.88;;;0.70;;
65230;SDS011;51813;40.666;16.602;2023-11-19T02:12:30;1.40;;;0.60;;
65230;SDS011;51813;40.666;16.602;2023-11-19T02:14:59;2.10;;;0.70;;
65230;SDS011;51813;40.666;16.602;2023-11-19T02:17:30;1.30;;;0.70;;
65230;SDS011;51813;40.666;16.602;2023-11-19T02:19:57;1.52;;;0.80;;
65230;SDS011;51813;40.666;16.602;2023-11-19T02:22:23;1.05;;;0.60;;
65230;SDS011;51813;40.666;16.602;2023-11-19T02:24:51;1.55;;;0.70;;
65230;SDS011;51813;40.666;16.602;2023-11-19T02:27:39;1.80;;;0.73;;
65230;SDS011;51813;40.666;16.602;2023-11-19T02:30:05;1.23;;;0.50;;
65230;SDS011;51813;40.666;16.602;2023-11-19T02:32:33;1.20;;;0.70;;
65230;SDS011;51813;40.666;16.602;2023-11-19T02:35:01;4.78;;;1.00;;
65230;SDS011;51813;40.666;16.602;2023-11-19T02:37:27;2.20;;;1.45;;
65230;SDS011;51813;40.666;16.602;2023-11-19T02:39:53;1.05;;;0.60;;
65230;SDS011;51813;40.666;16.602;2023-11-19T02:42:19;1.17;;;0.60;;
65230;SDS011;51813;40.666;16.602;2023-11-19T02:44:45;1.33;;;0.70;;
65230;SDS011;51813;40.666;16.602;2023-11-19T02:47:11;1.83;;;0.80;;
65230;SDS011;51813;40.666;16.602;2023-11-19T02:49:37;1.50;;;0.70;;
65230;SDS011;51813;40.666;16.602;2023-11-19T02:52:03;1.13;;;0.70;;
65230;SDS011;51813;40.666;16.602;2023-11-19T02:54:30;2.63;;;0.80;;
65230;SDS011;51813;40.666;16.602;2023-11-19T02:57:00;2.10;;;0.80;;
65230;SDS011;51813;40.666;16.602;2023-11-19T02:59:27;1.23;;;0.60;;
65230;SDS011;51813;40.666;16.602;2023-11-19T03:01:56;1.10;;;0.50;;
65230;SDS011;51813;40.666;16.602;2023-11-19T03:04:23;1.30;;;0.70;;
65230;SDS011;51813;40.666;16.602;2023-11-19T03:06:49;1.40;;;0.55;;
65230;SDS011;51813;40.666;16.602;2023-11-19T03:09:14;1.40;;;0.60;;
65230;SDS011;51813;40.666;16.602;2023-11-19T03:11:40;1.63;;;0.50;;
65230;SDS011;51813;40.666;16.602;2023-11-19T03:14:06;1.60;;;0.70;;
65230;SDS011;51813;40.666;16.602;2023-11-19T03:16:32;1.20;;;0.60;;
65230;SDS011;51813;40.666;16.602;2023-11-19T03:18:58;2.53;;;0.80;;
65230;SDS011;51813;40.666;16.602;2023-11-19T03:21:28;1.52;;;0.70;;
65230;SDS011;51813;40.666;16.602;2023-11-19T03:23:54;1.20;;;0.68;;
65230;SDS011;51813;40.666;16.602;2023-11-19T03:26:20;1.58;;;0.70;;
65230;SDS011;51813;40.666;16.602;2023-11-19T03:28:47;1.40;;;0.75;;
65230;SDS011;51813;40.666;16.602;2023-11-19T03:31:12;1.67;;;0.60;;
65230;SDS011;51813;40.666;16.602;2023-11-19T03:33:39;1.90;;;0.80;;
65230;SDS011;51813;40.666;16.602;2023-11-19T03:36:05;1.30;;;0.70;;
65230;SDS011;51813;40.666;16.602;2023-11-19T03:38:31;1.52;;;0.70;;
65230;SDS011;51813;40.666;16.602;2023-11-19T03:40:56;1.10;;;0.55;;
65230;SDS011;51813;40.666;16.602;2023-11-19T03:43:22;1.30;;;0.70;;
65230;SDS011;51813;40.666;16.602;2023-11-19T03:45:48;1.45;;;0.80;;
65230;SDS011;51813;40.666;16.602;2023-11-19T03:48:13;1.77;;;0.70;;
65230;SDS011;51813;40.666;16.602;2023-11-19T03:50:41;1.27;;;0.60;;
65230;SDS011;51813;40.666;16.602;2023-11-19T03:53:07;1.85;;;0.70;;
65230;SDS011;51813;40.666;16.602;2023-11-19T03:55:33;1.48;;;0.50;;
65230;SDS011;51813;40.666;16.602;2023-11-19T03:57:59;2.00;;;0.80;;
65230;SDS011;51813;40.666;16.602;2023-11-19T04:00:25;1.75;;;0.50;;
65230;SDS011;51813;40.666;16.602;2023-11-19T04:02:50;0.93;;;0.60;;
65230;SDS011;51813;40.666;16.602;2023-11-19T04:05:16;1.23;;;0.60;;
65230;SDS011;51813;40.666;16.602;2023-11-19T04:07:43;1.30;;;0.43;;
65230;SDS011;51813;40.666;16.602;2023-11-19T04:10:09;0.80;;;0.60;;
65230;SDS011;51813;40.666;16.602;2023-11-19T04:12:35;1.25;;;0.70;;
65230;SDS011;51813;40.666;16.602;2023-11-19T04:15:01;2.47;;;0.70;;
65230;SDS011;51813;40.666;16.602;2023-11-19T04:17:27;1.45;;;0.70;;
65230;SDS011;51813;40.666;16.602;2023-11-19T04:19:53;3.85;;;0.80;;
65230;SDS011;51813;40.666;16.602;2023-11-19T04:22:19;1.30;;;0.70;;
65230;SDS011;51813;40.666;16.602;2023-11-19T04:24:44;1.17;;;0.63;;
65230;SDS011;51813;40.666;16.602;2023-11-19T04:27:10;1.17;;;0.85;;
65230;SDS011;51813;40.666;16.602;2023-11-19T04:29:36;1.30;;;0.68;;
65230;SDS011;51813;40.666;16.602;2023-11-19T04:32:02;0.82;;;0.52;;
65230;SDS011;51813;40.666;16.602;2023-11-19T04:34:27;2.30;;;0.88;;
65230;SDS011;51813;40.666;16.602;2023-11-19T04:36:53;1.73;;;0.80;;
65230;SDS011;51813;40.666;16.602;2023-11-19T04:39:19;1.17;;;0.60;;
65230;SDS011;51813;40.666;16.602;2023-11-19T04:41:51;1.83;;;0.70;;
65230;SDS011;51813;40.666;16.602;2023-11-19T04:44:18;1.40;;;0.60;;
65230;SDS011;51813;40.666;16.602;2023-11-19T04:46:44;1.85;;;0.70;;
65230;SDS011;51813;40.666;16.602;2023-11-19T04:49:10;1.77;;;0.57;;
65230;SDS011;51813;40.666;16.602;2023-11-19T04:51:40;1.60;;;0.80;;
65230;SDS011;51813;40.666;16.602;2023-11-19T04:54:07;1.00;;;0.50;;
65230;SDS011;51813;40.666;16.602;2023-11-19T04:56:33;1.42;;;0.70;;
65230;SDS011;51813;40.666;16.602;2023-11-19T04:59:01;1.42;;;0.70;;
65230;SDS011;51813;40.666;16.602;2023-11-19T05:01:27;1.55;;;0.77;;
65230;SDS011;51813;40.666;16.602;2023-11-19T05:03:52;1.98;;;0.60;;
65230;SDS011;51813;40.666;16.602;2023-11-19T05:06:18;1.95;;;0.70;;
65230;SDS011;51813;40.666;16.602;2023-11-19T05:08:44;2.05;;;0.70;;
65230;SDS011;51813;40.666;16.602;2023-11-19T05:11:10;1.65;;;0.70;;
65230;SDS011;51813;40.666;16.602;2023-11-19T05:13:43;1.85;;;0.60;;
65230;SDS011;51813;40.666;16.602;2023-11-19T05:16:10;1.88;;;0.70;;
65230;SDS011;51813;40.666;16.602;2023-11-19T05:18:35;1.60;;;0.65;;
65230;SDS011;51813;40.666;16.602;2023-11-19T05:21:01;3.15;;;0.80;;
65230;SDS011;51813;40.666;16.602;2023-11-19T05:23:27;1.27;;;0.70;;
65230;SDS011;51813;40.666;16.602;2023-11-19T05:25:52;1.35;;;0.77;;
65230;SDS011;51813;40.666;16.602;2023-11-19T05:28:18;2.13;;;0.90;;
65230;SDS011;51813;40.666;16.602;2023-11-19T05:30:44;1.73;;;0.80;;
65230;SDS011;51813;40.666;16.602;2023-11-19T05:33:10;1.70;;;0.70;;
65230;SDS011;51813;40.666;16.602;2023-11-19T05:35:35;1.30;;;0.70;;
65230;SDS011;51813;40.666;16.602;2023-11-19T05:38:01;1.70;;;0.88;;
65230;SDS011;51813;40.666;16.602;2023-11-19T05:40:27;1.27;;;0.68;;
65230;SDS011;51813;40.666;16.602;2023-11-19T05:42:53;2.35;;;1.08;;
65230;SDS011;51813;40.666;16.602;2023-11-19T05:45:18;2.58;;;0.70;;
65230;SDS011;51813;40.666;16.602;2023-11-19T05:47:44;1.95;;;0.80;;
65230;SDS011;51813;40.666;16.602;2023-11-19T05:50:10;1.83;;;0.70;;
65230;SDS011;51813;40.666;16.602;2023-11-19T05:52:36;1.15;;;0.60;;
65230;SDS011;51813;40.666;16.602;2023-11-19T05:55:01;2.80;;;1.02;;
65230;SDS011;51813;40.666;16.602;2023-11-19T05:57:31;2.03;;;1.00;;
65230;SDS011;51813;40.666;16.602;2023-11-19T05:59:59;3.10;;;1.20;;
65230;SDS011;51813;40.666;16.602;2023-11-19T06:02:25;1.65;;;0.98;;
65230;SDS011;51813;40.666;16.602;2023-11-19T06:04:52;2.65;;;1.10;;
65230;SDS011;51813;40.666;16.602;2023-11-19T06:07:18;2.08;;;1.27;;
65230;SDS011;51813;40.666;16.602;2023-11-19T06:09:44;1.92;;;1.25;;
65230;SDS011;51813;40.666;16.602;2023-11-19T06:12:10;2.75;;;1.20;;
65230;SDS011;51813;40.666;16.602;2023-11-19T06:14:36;3.35;;;1.50;;
65230;SDS011;51813;40.666;16.602;2023-11-19T06:17:01;2.65;;;1.15;;
65230;SDS011;51813;40.666;16.602;2023-11-19T06:19:29;2.88;;;1.40;;
65230;SDS011;51813;40.666;16.602;2023-11-19T06:21:55;3.35;;;1.42;;
65230;SDS011;51813;40.666;16.602;2023-11-19T06:24:21;4.80;;;2.35;;
65230;SDS011;51813;40.666;16.602;2023-11-19T06:26:47;2.97;;;1.30;;
65230;SDS011;51813;40.666;16.602;2023-11-19T06:29:13;3.53;;;1.70;;
65230;SDS011;51813;40.666;16.602;2023-11-19T06:31:43;2.40;;;1.30;;
65230;SDS011;51813;40.666;16.602;2023-11-19T06:34:09;3.30;;;1.50;;
65230;SDS011;51813;40.666;16.602;2023-11-19T06:36:35;2.67;;;1.20;;
65230;SDS011;51813;40.666;16.602;2023-11-19T06:39:00;2.95;;;1.27;;
65230;SDS011;51813;40.666;16.602;2023-11-19T06:41:27;2.95;;;1.40;;
65230;SDS011;51813;40.666;16.602;2023-11-19T06:43:54;2.85;;;1.40;;
65230;SDS011;51813;40.666;16.602;2023-11-19T06:46:19;2.75;;;1.20;;
65230;SDS011;51813;40.666;16.602;2023-11-19T06:48:45;2.65;;;1.27;;
65230;SDS011;51813;40.666;16.602;2023-11-19T06:51:12;3.25;;;1.42;;
65230;SDS011;51813;40.666;16.602;2023-11-19T06:53:38;3.22;;;1.20;;
65230;SDS011;51813;40.666;16.602;2023-11-19T06:56:17;2.15;;;1.20;;
65230;SDS011;51813;40.666;16.602;2023-11-19T06:58:43;1.85;;;1.10;;
65230;SDS011;51813;40.666;16.602;2023-11-19T07:01:09;1.95;;;1.10;;
65230;SDS011;51813;40.666;16.602;2023-11-19T07:03:35;2.08;;;1.02;;
65230;SDS011;51813;40.666;16.602;2023-11-19T07:06:01;2.38;;;1.15;;
65230;SDS011;51813;40.666;16.602;2023-11-19T07:08:28;2.20;;;1.10;;
65230;SDS011;51813;40.666;16.602;2023-11-19T07:10:54;2.42;;;1.17;;
65230;SDS011;51813;40.666;16.602;2023-11-19T07:13:20;2.25;;;1.10;;
65230;SDS011;51813;40.666;16.602;2023-11-19T07:15:45;2.58;;;1.10;;
65230;SDS011;51813;40.666;16.602;2023-11-19T07:18:11;2.65;;;1.00;;
65230;SDS011;51813;40.666;16.602;2023-11-19T07:20:37;2.25;;;1.20;;
65230;SDS011;51813;40.666;16.602;2023-11-19T07:23:03;3.05;;;1.30;;
65230;SDS011;51813;40.666;16.602;2023-11-19T07:25:29;2.35;;;1.15;;
65230;SDS011;51813;40.666;16.602;2023-11-19T07:27:55;2.60;;;1.17;;
65230;SDS011;51813;40.666;16.602;2023-11-19T07:30:22;2.15;;;1.20;;
65230;SDS011;51813;40.666;16.602;2023-11-19T07:32:47;2.10;;;1.08;;
65230;SDS011;51813;40.666;16.602;2023-11-19T07:35:13;2.20;;;1.10;;
65230;SDS011;51813;40.666;16.602;2023-11-19T07:37:40;1.65;;;0.98;;
65230;SDS011;51813;40.666;16.602;2023-11-19T07:40:07;2.53;;;1.05;;
65230;SDS011;51813;40.666;16.602;2023-11-19T07:42:33;2.00;;;0.90;;
65230;SDS011;51813;40.666;16.602;2023-11-19T07:44:59;2.53;;;1.20;;
65230;SDS011;51813;40.666;16.602;2023-11-19T07:47:24;2.20;;;1.10;;
65230;SDS011;51813;40.666;16.602;2023-11-19T07:49:50;2.20;;;1.20;;
65230;SDS011;51813;40.666;16.602;2023-11-19T07:52:16;2.10;;;0.95;;
65230;SDS011;51813;40.666;16.602;2023-11-19T07:54:42;2.08;;;1.08;;
65230;SDS011;51813;40.666;16.602;2023-11-19T07:57:08;2.20;;;1.23;;
65230;SDS011;51813;40.666;16.602;2023-11-19T07:59:33;2.90;;;1.30;;
65230;SDS011;51813;40.666;16.602;2023-11-19T08:01:59;2.67;;;1.33;;
65230;SDS011;51813;40.666;16.602;2023-11-19T08:04:24;1.73;;;0.90;;
65230;SDS011;51813;40.666;16.602;2023-11-19T08:06:50;2.30;;;1.30;;
65230;SDS011;51813;40.666;16.602;2023-11-19T08:09:16;2.58;;;1.27;;
65230;SDS011;51813;40.666;16.602;2023-11-19T08:11:42;1.83;;;1.20;;
65230;SDS011;51813;40.666;16.602;2023-11-19T08:14:08;2.05;;;1.02;;
65230;SDS011;51813;40.666;16.602;2023-11-19T08:16:34;2.58;;;1.17;;
65230;SDS011;51813;40.666;16.602;2023-11-19T08:19:01;3.20;;;1.40;;
65230;SDS011;51813;40.666;16.602;2023-11-19T08:21:28;1.95;;;1.05;;
65230;SDS011;51813;40.666;16.602;2023-11-19T08:23:54;2.38;;;1.30;;
65230;SDS011;51813;40.666;16.602;2023-11-19T08:26:19;2.55;;;1.25;;
65230;SDS011;51813;40.666;16.602;2023-11-19T08:28:45;2.42;;;1.17;;
65230;SDS011;51813;40.666;16.602;2023-11-19T08:31:11;2.03;;;1.20;;
65230;SDS011;51813;40.666;16.602;2023-11-19T08:33:36;2.10;;;1.20;;
65230;SDS011;51813;40.666;16.602;2023-11-19T08:36:02;2.08;;;1.20;;
65230;SDS011;51813;40.666;16.602;2023-11-19T08:38:29;2.67;;;1.30;;
65230;SDS011;51813;40.666;16.602;2023-11-19T08:40:54;2.25;;;1.27;;
65230;SDS011;51813;40.666;16.602;2023-11-19T08:43:25;3.08;;;1.40;;
65230;SDS011;51813;40.666;16.602;2023-11-19T08:45:51;3.67;;;1.40;;
65230;SDS011;51813;40.666;16.602;2023-11-19T08:48:16;2.20;;;1.10;;
65230;SDS011;51813;40.666;16.602;2023-11-19T08:50:42;2.70;;;1.45;;
65230;SDS011;51813;40.666;16.602;2023-11-19T08:53:07;3.45;;;1.25;;
65230;SDS011;51813;40.666;16.602;2023-11-19T08:55:33;4.00;;;1.30;;
65230;SDS011;51813;40.666;16.602;2023-11-19T08:57:59;2.72;;;1.40;;
65230;SDS011;51813;40.666;16.602;2023-11-19T09:00:24;2.60;;;1.30;;
65230;SDS011;51813;40.666;16.602;2023-11-19T09:02:50;2.22;;;1.27;;
65230;SDS011;51813;40.666;16.602;2023-11-19T09:05:16;2.17;;;1.25;;
65230;SDS011;51813;40.666;16.602;2023-11-19T09:07:41;3.28;;;1.40;;
65230;SDS011;51813;40.666;16.602;2023-11-19T09:10:07;2.60;;;1.58;;
65230;SDS011;51813;40.666;16.602;2023-11-19T09:12:33;3.22;;;2.25;;
65230;SDS011;51813;40.666;16.602;2023-11-19T09:15:00;2.55;;;1.50;;
65230;SDS011;51813;40.666;16.602;2023-11-19T09:17:25;3.42;;;1.63;;
65230;SDS011;51813;40.666;16.602;2023-11-19T09:19:51;3.25;;;1.63;;
65230;SDS011;51813;40.666;16.602;2023-11-19T09:22:17;2.60;;;1.50;;
65230;SDS011;51813;40.666;16.602;2023-11-19T09:24:42;3.65;;;1.63;;
65230;SDS011;51813;40.666;16.602;2023-11-19T09:27:09;2.38;;;1.48;;
65230;SDS011;51813;40.666;16.602;2023-11-19T09:29:35;2.15;;;1.40;;
65230;SDS011;51813;40.666;16.602;2023-11-19T09:32:01;2.90;;;1.30;;
65230;SDS011;51813;40.666;16.602;2023-11-19T09:34:27;3.53;;;1.30;;
65230;SDS011;51813;40.666;16.602;2023-11-19T09:36:53;3.35;;;1.60;;
65230;SDS011;51813;40.666;16.602;2023-11-19T09:39:18;5.45;;;2.00;;
65230;SDS011;51813;40.666;16.602;2023-11-19T09:41:45;4.22;;;1.80;;
65230;SDS011;51813;40.666;16.602;2023-11-19T09:44:11;2.67;;;1.48;;
65230;SDS011;51813;40.666;16.602;2023-11-19T09:46:38;2.33;;;1.05;;
65230;SDS011;51813;40.666;16.602;2023-11-19T09:49:06;2.75;;;1.35;;
65230;SDS011;51813;40.666;16.602;2023-11-19T09:51:35;2.83;;;1.38;;
65230;SDS011;51813;40.666;16.602;2023-11-19T09:54:01;2.88;;;1.30;;
65230;SDS011;51813;40.666;16.602;2023-11-19T09:56:30;2.30;;;1.40;;
65230;SDS011;51813;40.666;16.602;2023-11-19T09:58:57;2.50;;;1.50;;
65230;SDS011;51813;40.666;16.602;2023-11-19T10:01:24;2.65;;;1.50;;
65230;SDS011;51813;40.666;16.602;2023-11-19T10:03:50;2.90;;;1.40;;
65230;SDS011;51813;40.666;16.602;2023-11-19T10:06:20;3.10;;;1.60;;
65230;SDS011;51813;40.666;16.602;2023-11-19T10:08:46;2.90;;;1.40;;
65230;SDS011;51813;40.666;16.602;2023-11-19T10:11:12;3.00;;;1.55;;
65230;SDS011;51813;40.666;16.602;2023-11-19T10:13:38;2.22;;;1.40;;
65230;SDS011;51813;40.666;16.602;2023-11-19T10:16:06;2.65;;;1.20;;
65230;SDS011;51813;40.666;16.602;2023-11-19T10:18:33;2.40;;;1.33;;
65230;SDS011;51813;40.666;16.602;2023-11-19T10:21:03;2.65;;;1.40;;
65230;SDS011;51813;40.666;16.602;2023-11-19T10:23:31;2.35;;;1.30;;
65230;SDS011;51813;40.666;16.602;2023-11-19T10:26:03;2.40;;;1.23;;
65230;SDS011;51813;40.666;16.602;2023-11-19T10:28:41;2.42;;;1.27;;
65230;SDS011;51813;40.666;16.602;2023-11-19T10:31:09;3.00;;;1.48;;
65230;SDS011;51813;40.666;16.602;2023-11-19T10:33:35;2.25;;;1.25;;
65230;SDS011;51813;40.666;16.602;2023-11-19T10:36:00;2.30;;;1.20;;
65230;SDS011;51813;40.666;16.602;2023-11-19T10:38:26;2.40;;;1.25;;
65230;SDS011;51813;40.666;16.602;2023-11-19T10:40:52;2.35;;;1.30;;
65230;SDS011;51813;40.666;16.602;2023-11-19T10:43:19;2.08;;;1.13;;
65230;SDS011;51813;40.666;16.602;2023-11-19T10:45:47;2.40;;;1.20;;
65230;SDS011;51813;40.666;16.602;2023-11-19T10:48:13;1.98;;;1.00;;
65230;SDS011;51813;40.666;16.602;2023-11-19T10:50:40;1.83;;;0.98;;
65230;SDS011;51813;40.666;16.602;2023-11-19T10:53:09;2.30;;;1.20;;
65230;SDS011;51813;40.666;16.602;2023-11-19T10:55:38;2.08;;;1.02;;
65230;SDS011;51813;40.666;16.602;2023-11-19T10:58:07;2.30;;;1.02;;
65230;SDS011;51813;40.666;16.602;2023-11-19T11:03:20;1.98;;;0.95;;
65230;SDS011;51813;40.666;16.602;2023-11-19T11:05:52;1.95;;;1.00;;
65230;SDS011;51813;40.666;16.602;2023-11-19T11:08:18;1.70;;;0.90;;
65230;SDS011;51813;40.666;16.602;2023-11-19T11:10:51;1.73;;;0.88;;
65230;SDS011;51813;40.666;16.602;2023-11-19T11:13:19;1.77;;;0.90;;
65230;SDS011;51813;40.666;16.602;2023-11-19T11:15:47;1.77;;;1.00;;
65230;SDS011;51813;40.666;16.602;2023-11-19T11:18:14;2.20;;;1.08;;
65230;SDS011;51813;40.666;16.602;2023-11-19T11:20:40;1.80;;;0.90;;
65230;SDS011;51813;40.666;16.602;2023-11-19T11:39:49;3.45;;;0.95;;
65230;SDS011;51813;40.666;16.602;2023-11-19T11:45:00;1.58;;;0.90;;
65230;SDS011;51813;40.666;16.602;2023-11-19T11:50:09;1.27;;;0.80;;
65230;SDS011;51813;40.666;16.602;2023-11-19T11:55:28;1.80;;;1.00;;
65230;SDS011;51813;40.666;16.602;2023-11-19T11:58:01;1.00;;;0.70;;
65230;SDS011;51813;40.666;16.602;2023-11-19T12:00:37;1.83;;;0.80;;
65230;SDS011;51813;40.666;16.602;2023-11-19T12:03:06;1.48;;;0.80;;
65230;SDS011;51813;40.666;16.602;2023-11-19T12:05:33;1.45;;;0.80;;
65230;SDS011;51813;40.666;16.602;2023-11-19T12:08:06;1.77;;;1.10;;
65230;SDS011;51813;40.666;16.602;2023-11-19T12:10:36;1.92;;;0.85;;
65230;SDS011;51813;40.666;16.602;2023-11-19T12:13:10;2.65;;;1.00;;
65230;SDS011;51813;40.666;16.602;2023-11-19T12:16:06;1.33;;;0.75;;
65230;SDS011;51813;40.666;16.602;2023-11-19T12:18:32;2.55;;;1.02;;
65230;SDS011;51813;40.666;16.602;2023-11-19T12:20:58;1.60;;;0.90;;
65230;SDS011;51813;40.666;16.602;2023-11-19T12:23:30;1.43;;;0.90;;
65230;SDS011;51813;40.666;16.602;2023-11-19T12:25:57;2.30;;;1.10;;
65230;SDS011;51813;40.666;16.602;2023-11-19T12:28:24;1.80;;;1.02;;
65230;SDS011;51813;40.666;16.602;2023-11-19T12:30:52;2.20;;;1.10;;
65230;SDS011;51813;40.666;16.602;2023-11-19T12:33:18;2.33;;;1.20;;
65230;SDS011;51813;40.666;16.602;2023-11-19T12:35:45;2.25;;;0.90;;
65230;SDS011;51813;40.666;16.602;2023-11-19T12:38:21;2.25;;;1.10;;
65230;SDS011;51813;40.666;16.602;2023-11-19T12:41:07;2.92;;;1.13;;
65230;SDS011;51813;40.666;16.602;2023-11-19T12:43:35;2.17;;;1.00;;
65230;SDS011;51813;40.666;16.602;2023-11-19T12:46:02;2.22;;;1.00;;
65230;SDS011;51813;40.666;16.602;2023-11-19T12:48:41;2.55;;;1.08;;
65230;SDS011;51813;40.666;16.602;2023-11-19T12:51:07;2.63;;;1.00;;
65230;SDS011;51813;40.666;16.602;2023-11-19T12:53:46;2.22;;;1.05;;
65230;SDS011;51813;40.666;16.602;2023-11-19T12:56:13;2.97;;;0.90;;
65230;SDS011;51813;40.666;16.602;2023-11-19T12:58:40;1.73;;;0.93;;
65230;SDS011;51813;40.666;16.602;2023-11-19T13:01:08;2.63;;;1.02;;
65230;SDS011;51813;40.666;16.602;2023-11-19T13:03:37;3.42;;;1.33;;
65230;SDS011;51813;40.666;16.602;2023-11-19T13:08:37;2.25;;;1.10;;
65230;SDS011;51813;40.666;16.602;2023-11-19T13:11:03;1.85;;;1.00;;
65230;SDS011;51813;40.666;16.602;2023-11-19T13:13:29;2.00;;;1.10;;
65230;SDS011;51813;40.666;16.602;2023-11-19T13:16:01;2.08;;;1.00;;
65230;SDS011;51813;40.666;16.602;2023-11-19T13:18:28;2.50;;;1.17;;
65230;SDS011;51813;40.666;16.602;2023-11-19T13:20:54;2.15;;;1.00;;
65230;SDS011;51813;40.666;16.602;2023-11-19T13:23:22;2.00;;;1.00;;
65230;SDS011;51813;40.666;16.602;2023-11-19T13:25:49;2.28;;;1.10;;
65230;SDS011;51813;40.666;16.602;2023-11-19T13:28:15;1.50;;;0.90;;
65230;SDS011;51813;40.666;16.602;2023-11-19T13:30:40;2.15;;;1.10;;
65230;SDS011;51813;40.666;16.602;2023-11-19T13:33:06;2.00;;;1.00;;
65230;SDS011;51813;40.666;16.602;2023-11-19T13:35:31;2.90;;;1.10;;
65230;SDS011;51813;40.666;16.602;2023-11-19T13:37:57;2.42;;;1.10;;
65230;SDS011;51813;40.666;16.602;2023-11-19T13:40:23;1.88;;;1.00;;
65230;SDS011;51813;40.666;16.602;2023-11-19T13:42:50;2.17;;;1.08;;
65230;SDS011;51813;40.666;16.602;2023-11-19T13:45:16;2.38;;;1.08;;
65230;SDS011;51813;40.666;16.602;2023-11-19T13:47:43;1.50;;;0.90;;
65230;SDS011;51813;40.666;16.602;2023-11-19T13:50:11;2.25;;;0.90;;
65230;SDS011;51813;40.666;16.602;2023-11-19T13:52:41;2.70;;;1.03;;
65230;SDS011;51813;40.666;16.602;2023-11-19T13:55:08;2.05;;;1.00;;
65230;SDS011;51813;40.666;16.602;2023-11-19T13:57:38;1.85;;;0.90;;
65230;SDS011;51813;40.666;16.602;2023-11-19T14:00:05;2.00;;;1.00;;
65230;SDS011;51813;40.666;16.602;2023-11-19T14:02:41;2.13;;;1.00;;
65230;SDS011;51813;40.666;16.602;2023-11-19T14:05:08;2.35;;;0.95;;
65230;SDS011;51813;40.666;16.602;2023-11-19T14:07:34;1.65;;;0.90;;
65230;SDS011;51813;40.666;16.602;2023-11-19T14:10:00;2.30;;;1.08;;
65230;SDS011;51813;40.666;16.602;2023-11-19T14:12:25;2.53;;;0.93;;
65230;SDS011;51813;40.666;16.602;2023-11-19T14:14:51;1.98;;;0.98;;
65230;SDS011;51813;40.666;16.602;2023-11-19T14:17:17;1.92;;;1.00;;
65230;SDS011;51813;40.666;16.602;2023-11-19T14:19:43;1.98;;;0.95;;
65230;SDS011;51813;40.666;16.602;2023-11-19T14:22:09;1.35;;;0.90;;
65230;SDS011;51813;40.666;16.602;2023-11-19T14:24:35;1.77;;;0.90;;
65230;SDS011;51813;40.666;16.602;2023-11-19T14:27:01;2.13;;;1.02;;
65230;SDS011;51813;40.666;16.602;2023-11-19T14:29:27;1.88;;;0.98;;
65230;SDS011;51813;40.666;16.602;2023-11-19T14:31:56;1.98;;;0.90;;
65230;SDS011;51813;40.666;16.602;2023-11-19T14:34:23;2.08;;;1.00;;
65230;SDS011;51813;40.666;16.602;2023-11-19T14:36:51;2.05;;;1.02;;
65230;SDS011;51813;40.666;16.602;2023-11-19T14:39:17;1.52;;;0.95;;
65230;SDS011;51813;40.666;16.602;2023-11-19T14:41:43;1.50;;;0.90;;
65230;SDS011;51813;40.666;16.602;2023-11-19T14:44:09;2.35;;;1.00;;
65230;SDS011;51813;40.666;16.602;2023-11-19T14:46:35;1.77;;;0.90;;
65230;SDS011;51813;40.666;16.602;2023-11-19T14:49:01;1.90;;;0.88;;
65230;SDS011;51813;40.666;16.602;2023-11-19T14:51:28;2.10;;;1.00;;
65230;SDS011;51813;40.666;16.602;2023-11-19T14:53:54;2.30;;;1.10;;
65230;SDS011;51813;40.666;16.602;2023-11-19T14:56:20;2.55;;;1.10;;
65230;SDS011;51813;40.666;16.602;2023-11-19T14:58:46;1.80;;;0.98;;
65230;SDS011;51813;40.666;16.602;2023-11-19T15:01:12;2.75;;;1.02;;